Mayfield Township, Maine
Current Conditions -  °F | °C
As of 7:15 AM on Thursday 18 Dec 2014 (Local Time) from KWVL Reporting Station
Overcast Overcast  
Wind Chill: 25°   Ceiling: 600
Heat Index: 34°   Visibility: 2mi
Dew Point: 28°   Wind: 12mph
Humidity: 81%   Direction: 320°NW
Pressure: 29.6"   Gusts: NA
Location:  45.0644°N, 69.6033°W
Report Text: KWVL 181215Z 32010KT 2SM OVC006 01/M02 A2960 RMK AO1
Loading
Personal Weather Stations






























Interactive Weather Map New forecast layout! Learn more

10-Day Weather Forecast

Advertisements
Track Severe Weather on mobile